ADDS METAR Data INFO
IDs: Format: Raw Decoded Include TAF

Data at: 0248 UTC 17 Jan 2018

KSGS 170235Z AUTO 00000KT 10SM CLR M17/M20 A3057 RMK AO2 T11701200
KSGS 170215Z AUTO 00000KT 10SM CLR M17/M20 A3058 RMK AO2 T11681200
KSGS 170155Z AUTO 26003KT 10SM CLR M17/M20 A3058 RMK AO2 T11681200
KSGS 170135Z AUTO 00000KT 10SM CLR M17/M20 A3059 RMK AO2 T11661200
KSGS 170115Z AUTO 26003KT 10SM CLR M16/M20 A3060 RMK AO2 T11651200
KSGS 170055Z AUTO 00000KT 10SM CLR M16/M20 A3060 RMK AO2 T11651202
KSGS 170035Z AUTO 00000KT 10SM CLR M16/M20 A3060 RMK AO2 T11631201
KSGS 170015Z AUTO 00000KT 10SM CLR M16/M20 A3061 RMK AO2 T11611201
KSGS 162355Z AUTO 25004KT 10SM CLR M16/M20 A3061 RMK AO2 T11601201 11125 21160
KSGS 162335Z AUTO 25003KT 10SM CLR M16/M20 A3062 RMK AO2 T11561200
KSGS 162315Z AUTO 26004KT 10SM CLR M15/M20 A3062 RMK AO2 T11511198
KSGS 162255Z AUTO 26006KT 10SM CLR M15/M20 A3062 RMK AO2 T11471197
KSGS 162235Z AUTO 26007KT 10SM CLR M14/M19 A3062 RMK AO2 T11411192
KSGS 162215Z AUTO 26005KT 10SM CLR M13/M19 A3062 RMK AO2 T11351188
KSGS 162155Z AUTO 25005KT 10SM CLR M13/M18 A3062 RMK AO2 T11311185
KSGS 162135Z AUTO 26006KT 10SM CLR M13/M18 A3062 RMK AO2 T11291185
KSGS 162115Z AUTO 26004KT 10SM CLR M12/M18 A3062 RMK AO2 T11251181
KSGS 162055Z AUTO 25006KT 10SM CLR M12/M18 A3062 RMK AO2 T11251181
KSGS 162035Z AUTO 28007KT 10SM CLR M12/M18 A3063 RMK AO2 T11251183
KSGS 162015Z AUTO 28005KT 10SM CLR M13/M18 A3063 RMK AO2 T11261185
KSGS 161955Z AUTO 26005KT 10SM CLR M12/M18 A3063 RMK AO2 T11251183
KSGS 161935Z AUTO 27006KT 10SM CLR M13/M18 A3064 RMK AO2 T11271185
KSGS 161915Z AUTO 28006KT 10SM CLR M13/M19 A3064 RMK AO2 T11311188
KSGS 161855Z AUTO 30006KT 10SM CLR M13/M19 A3065 RMK AO2 T11351191
KSGS 161835Z AUTO 27005KT 10SM CLR M14/M19 A3065 RMK AO2 T11371193
KSGS 161815Z AUTO 25004KT 10SM CLR M14/M19 A3066 RMK AO2 T11391191
KSGS 161755Z AUTO 32004KT 10SM CLR M14/M19 A3067 RMK AO2 T11451195 11145 21168
KSGS 161735Z AUTO 00000KT 10SM CLR M15/M20 A3068 RMK AO2 T11501198
KSGS 161715Z AUTO 00000KT 10SM CLR M15/M20 A3069 RMK AO2 T11541200
KSGS 161655Z AUTO 30005KT 10SM CLR M16/M20 A3069 RMK AO2 T11581200
KSGS 161635Z AUTO 33004KT 10SM SCT013 M16/M20 A3070 RMK AO2 T11601200
KSGS 161615Z AUTO 30006KT 10SM BKN013 M16/M20 A3069 RMK AO2 T11641200
KSGS 161555Z AUTO 32005KT 10SM OVC013 M16/M20 A3069 RMK AO2 T11651200
KSGS 161535Z AUTO 31009KT 10SM OVC013 M17/M20 A3070 RMK AO2 T11681200
KSGS 161515Z AUTO 31006KT 10SM OVC013 M17/M20 A3069 RMK AO2 T11681200
KSGS 161456Z AUTO 31007KT 5SM HZ OVC013 M16/M19 A3068 RMK AO2 T11651195
KSGS 161435Z AUTO 33007KT 5SM BR OVC011 M16/M19 A3068 RMK AO2 T11651190
KSGS 161415Z AUTO 33005KT 7SM OVC009 M16/M19 A3068 RMK AO2 T11631187
KSGS 161355Z AUTO 32008KT 7SM OVC009 M16/M19 A3067 RMK AO2 T11621186
KSGS 161335Z AUTO 31006KT 10SM OVC009 M16/M19 A3067 RMK AO2 T11611186
KSGS 161315Z AUTO 32005KT 7SM OVC009 M16/M18 A3067 RMK AO2 T11611185
KSGS 161255Z AUTO 32007KT 10SM OVC009 M16/M18 A3067 RMK AO2 T11611185
KSGS 161235Z AUTO 31007KT 10SM OVC009 M16/M18 A3066 RMK AO2 T11611185
KSGS 161215Z AUTO 33006KT 10SM OVC011 M16/M19 A3065 RMK AO2 T11621187
KSGS 161155Z AUTO 33008KT 10SM OVC011 M16/M19 A3065 RMK AO2 T11611188 11156 21175
KSGS 161135Z AUTO 33006KT 10SM OVC011 M16/M19 A3065 RMK AO2 T11611190
KSGS 161115Z AUTO 33007KT 10SM OVC011 M16/M19 A3064 RMK AO2 T11621190
KSGS 161055Z AUTO 33006KT 10SM OVC011 M16/M19 A3064 RMK AO2 T11631191
KSGS 161035Z AUTO 33009KT 10SM OVC013 M16/M19 A3063 RMK AO2 T11651193
KSGS 161015Z AUTO 32008KT 10SM OVC013 M17/M20 A3063 RMK AO2 T11671196
KSGS 160955Z AUTO 33006KT 10SM SCT015 M17/M20 A3063 RMK AO2 T11711199
KSGS 160935Z AUTO 33006KT 10SM CLR M17/M20 A3062 RMK AO2 T11741201
KSGS 160915Z AUTO 32006KT 10SM CLR M17/M20 A3061 RMK AO2 T11731201
KSGS 160855Z AUTO 32006KT 10SM CLR M17/M20 A3061 RMK AO2 T11711200
KSGS 160835Z AUTO 33007KT 10SM CLR M17/M20 A3060 RMK AO2 T11701200
KSGS 160815Z AUTO 32007KT 10SM CLR M17/M20 A3060 RMK AO2 T11691200
KSGS 160755Z AUTO 32007KT 10SM CLR M17/M20 A3060 RMK AO2 T11661198
KSGS 160735Z AUTO 32008KT 10SM CLR M16/M20 A3058 RMK AO2 T11631196
KSGS 160715Z AUTO 31009KT 10SM SCT033 M16/M19 A3058 RMK AO2 T11621195
KSGS 160655Z AUTO 32009KT 10SM SCT033 M16/M20 A3057 RMK AO2 T11641198
KSGS 160635Z AUTO 32007KT 10SM SCT033 M16/M20 A3058 RMK AO2 T11621198
KSGS 160615Z AUTO 32007KT 10SM CLR M16/M19 A3057 RMK AO2 T11581195
KSGS 160555Z AUTO 32008KT 7SM -SN SCT039 SCT046 M16/M19 A3057 RMK AO2 T11561194 11150 21161 410861161
KSGS 160535Z AUTO 32009KT 10SM SCT015 BKN041 BKN048 M16/M20 A3057 RMK AO2 T11581196
KSGS 160515Z AUTO 32008KT 10SM SCT015 SCT060 BKN070 M16/M20 A3057 RMK AO2 T11581196
KSGS 160456Z AUTO 32008KT 10SM BKN070 M16/M20 A3056 RMK AO2 T11601198
KSGS 160435Z AUTO 33007G14KT 10SM CLR M16/M20 A3056 RMK AO2 T11601200
KSGS 160415Z AUTO 32009KT 10SM SCT024 M16/M20 A3055 RMK AO2 T11601200
KSGS 160355Z AUTO 32011G15KT 10SM BKN022 M15/M20 A3055 RMK AO2 T11551196
KSGS 160335Z AUTO 32011G16KT 10SM OVC020 M15/M19 A3054 RMK AO2 T11531195
KSGS 160315Z AUTO 33010KT 10SM OVC022 M15/M19 A3054 RMK AO2 T11521192
KSGS 160255Z AUTO 32009G17KT 7SM SCT024 BKN036 OVC065 M15/M19 A3054 RMK AO2 T11511191
KSGS 160235Z AUTO 33011G15KT 10SM SCT049 BKN065 M15/M19 A3053 RMK AO2 T11511192
KSGS 160215Z AUTO 33006KT 10SM SCT030 SCT070 SCT085 M15/M19 A3052 RMK AO2 T11501191
KSGS 160155Z AUTO 32009KT 10SM SCT028 SCT036 BKN050 M15/M19 A3052 RMK AO2 T11501190
KSGS 160135Z AUTO 32010G15KT 10SM BKN028 BKN036 OVC042 M15/M19 A3052 RMK AO2 T11511192
KSGS 160115Z AUTO 33008KT 10SM SCT030 BKN038 OVC050 M15/M20 A3052 RMK AO2 T11521196
KSGS 160055Z AUTO 32008KT 10SM SCT035 SCT040 OVC050 M15/M19 A3051 RMK AO2 T11501195
KSGS 160035Z AUTO 32008KT 10SM SCT035 BKN048 OVC050 M15/M20 A3050 RMK AO2 T11521200
KSGS 160015Z AUTO 31009KT 10SM BKN055 M15/M20 A3049 RMK AO2 T11501200
KSGS 152355Z AUTO 32008G15KT 10SM OVC065 M15/M20 A3049 RMK AO2 T11501200 11137 21152
KSGS 152335Z AUTO 32012KT 10SM SCT025 BKN065 M15/M20 A3049 RMK AO2 T11491196
KSGS 152315Z AUTO 32009KT 10SM SCT025 M15/M20 A3048 RMK AO2 T11521196
KSGS 152255Z AUTO 32007KT 10SM SCT023 SCT030 BKN037 M15/M20 A3047 RMK AO2 T11511197
KSGS 152235Z AUTO 32011G15KT 10SM BKN035 OVC042 M15/M20 A3046 RMK AO2 T11501198
KSGS 152215Z AUTO 33011G17KT 10SM BKN035 BKN043 OVC060 M14/M20 A3045 RMK AO2 T11451197
KSGS 152155Z AUTO 32010G15KT 10SM BKN031 OVC040 M14/M19 A3043 RMK AO2 T11451195
KSGS 152135Z AUTO 32011G16KT 10SM BKN029 BKN034 M14/M19 A3043 RMK AO2 T11421195
KSGS 152115Z AUTO 32010G17KT 10SM SCT029 SCT100 M14/M20 A3042 RMK AO2 T11451196
KSGS 152056Z AUTO 33011G17KT 10SM SCT023 OVC029 M14/M19 A3041 RMK AO2 T11431195
KSGS 152035Z AUTO 32011KT 7SM OVC029 M14/M19 A3040 RMK AO2 T11421192
KSGS 152015Z AUTO 32012G16KT 7SM OVC029 M14/M19 A3040 RMK AO2 T11401191
KSGS 151955Z AUTO 32014G20KT 5SM HZ SCT024 BKN031 OVC050 M14/M19 A3039 RMK AO2 T11401190
KSGS 151935Z AUTO 33013KT 5SM HZ BKN027 OVC031 M14/M19 A3038 RMK AO2 T11401192
KSGS 151916Z AUTO 32013G17KT 5SM HZ SCT025 OVC033 M14/M19 A3038 RMK AO2 T11371190
KSGS 151855Z AUTO 32013G19KT 7SM SCT026 BKN033 OVC045 M14/M19 A3038 RMK AO2 T11371194
KSGS 151835Z AUTO 32013KT 7SM BKN033 M14/M20 A3038 RMK AO2 T11401196
KSGS 151815Z AUTO 34014G20KT 5SM HZ CLR M14/M20 A3037 RMK AO2 T11421197
KSGS 151755Z AUTO 33014G21KT 7SM CLR M14/M20 A3038 RMK AO2 T11421196 11135 21152
KSGS 151735Z AUTO 33015KT 7SM SCT090 M14/M20 A3038 RMK AO2 T11431196
KSGS 151715Z AUTO 35014G19KT 7SM SCT090 M14/M20 A3038 RMK AO2 T11441196
KSGS 151655Z AUTO 33012G24KT 5SM HZ SCT090 M15/M20 A3037 RMK AO2 T11471196
KSGS 151635Z AUTO 32016G22KT 7SM SCT080 M15/M19 A3037 RMK AO2 T11471195
KSGS 151615Z AUTO 33014G19KT 7SM BKN080 M15/M20 A3037 RMK AO2 T11501197
KSGS 151555Z AUTO 33011G18KT 10SM OVC080 M15/M20 A3036 RMK AO2 T11501197
KSGS 151535Z AUTO 33015G19KT 10SM OVC080 M15/M20 A3035 RMK AO2 T11511196
KSGS 151516Z AUTO 34013G19KT 10SM OVC080 M15/M20 A3035 RMK AO2 T11521196
KSGS 151455Z AUTO 33016G21KT 7SM OVC080 M15/M19 A3033 RMK AO2 T11521195